Schedule Details

Flight Number: CPX718
Departure: Juan Santamar?a International Airport (MROC) at N/A
Arrival: Miami International Airport (KMIA) at N/A
Route: UCA UA301 URSUS FLIPR6


Current Weather Information
MROC 192200Z 12010KT 080V150 9999 FEW040 SCT250 29/14 A2994 NOSIG
KMIA 192153Z 11013KT 10SM BKN030 27/20 A3013 RMK AO2 SLP201 T02670200